Terminal Aerodrome Forecast
Issued by NWS Twin Cities, MN

Home | Current Version | Previous Version | Text Only | Print | Product List | Glossary Off
Versions: 1 2 3 4 5 6 7 8 9 10 11 12 13 14 15 16

850
FTUS43 KMPX 201720
TAFSTC
TAF
KSTC 201720Z 2018/2118 32012G18KT P6SM BKN018 OVC035
     FM202300 30011KT P6SM OVC040
     FM210400 29009KT P6SM SCT050
     FM210800 26005KT P6SM SKC=

USA.gov is the U.S. government's official web portal to all federal, state and local government web resources and services.